Time;durP1;ratioP1;P1;durP2;ratioP2;P2;SDS_P1;SDS_P2;PMS_P1;PMS_P2;Temp;Humidity;BMP_temperature;BMP_pressure;BME280_temperature;BME280_humidity;BME280_pressure;Samples;Min_cycle;Max_cycle;Signal;HPM_P1;HPM_P2
2023/01/30 00:01:44;;;;;;;57.50;33.33;;;2.30;1.00;;;;;;4933573;29;20050;-74
2023/01/30 00:04:12;;;;;;;59.88;34.88;;;2.30;1.00;;;;;;4933843;29;20122;-72
2023/01/30 00:06:40;;;;;;;69.65;40.10;;;2.20;1.00;;;;;;4933236;29;20048;-73
2023/01/30 00:09:07;;;;;;;68.40;40.08;;;2.20;1.00;;;;;;4933751;29;20122;-73
2023/01/30 00:11:35;;;;;;;71.03;39.47;;;2.10;1.00;;;;;;4933905;29;20035;-73
2023/01/30 00:14:04;;;;;;;81.07;46.30;;;2.00;1.00;;;;;;4933465;29;20404;-73
2023/01/30 00:16:31;;;;;;;81.78;47.60;;;2.00;1.00;;;;;;4933330;29;20054;-73
2023/01/30 00:18:59;;;;;;;89.22;51.65;;;2.00;1.00;;;;;;4933597;29;20036;-73
2023/01/30 00:21:26;;;;;;;79.18;47.65;;;2.10;1.00;;;;;;4933175;29;20042;-74
2023/01/30 00:23:54;;;;;;;77.82;46.90;;;2.20;1.00;;;;;;4933216;29;20527;-73
2023/01/30 00:26:21;;;;;;;75.57;45.70;;;2.20;1.00;;;;;;4932820;29;20068;-74
2023/01/30 00:28:48;;;;;;;82.68;48.67;;;2.20;1.00;;;;;;4933356;29;20150;-73
2023/01/30 00:31:17;;;;;;;88.68;51.25;;;2.20;1.00;;;;;;4922882;29;20051;-73
2023/01/30 00:33:45;;;;;;;83.72;49.22;;;2.10;1.00;;;;;;4932987;29;20039;-73
2023/01/30 00:36:12;;;;;;;98.80;57.90;;;2.10;1.00;;;;;;4915651;29;20052;-74
2023/01/30 00:38:40;;;;;;;109.72;63.80;;;2.10;1.00;;;;;;4933560;29;20054;-74
2023/01/30 00:41:09;;;;;;;123.53;71.15;;;2.10;1.00;;;;;;4932372;29;20512;-73
2023/01/30 00:49:12;;;;;;;;;;;2.00;1.00;;;;;;4921903;29;20055;-73
2023/01/30 00:51:40;;;;;;;116.38;67.22;;;1.90;1.00;;;;;;4915210;29;19970;-73
2023/01/30 00:54:07;;;;;;;121.57;70.65;;;1.90;1.00;;;;;;4932993;29;20044;-72
2023/01/30 00:56:35;;;;;;;108.88;64.95;;;1.80;1.00;;;;;;4933711;29;20540;-73
2023/01/30 00:59:03;;;;;;;107.57;63.92;;;1.80;1.00;;;;;;4914785;29;20053;-74
2023/01/30 01:01:33;;;;;;;107.50;63.13;;;1.80;1.00;;;;;;4932995;29;20493;-74
2023/01/30 01:04:00;;;;;;;110.22;61.97;;;1.80;1.00;;;;;;4915721;29;20131;-73
2023/01/30 01:06:28;;;;;;;122.05;68.38;;;1.90;1.00;;;;;;4933109;29;20079;-73
2023/01/30 01:08:55;;;;;;;103.60;60.92;;;1.90;1.00;;;;;;4915466;29;20054;-72
2023/01/30 01:11:25;;;;;;;107.53;61.03;;;2.00;1.00;;;;;;4914643;29;20131;-73
2023/01/30 01:13:54;;;;;;;97.07;57.08;;;2.00;1.00;;;;;;4932776;29;20051;-73
2023/01/30 01:16:22;;;;;;;98.75;57.25;;;2.10;1.00;;;;;;4932667;29;20039;-72
2023/01/30 01:18:51;;;;;;;88.45;51.22;;;2.10;1.00;;;;;;4915124;29;20067;-73
2023/01/30 01:21:20;;;;;;;89.72;51.00;;;2.10;1.00;;;;;;4931725;29;20150;-73
2023/01/30 01:23:51;;;;;;;85.38;47.03;;;2.00;1.00;;;;;;4932861;29;20051;-74
2023/01/30 01:26:19;;;;;;;86.13;49.45;;;1.90;1.00;;;;;;4932788;29;20102;-74
2023/01/30 01:28:46;;;;;;;85.28;46.38;;;1.90;1.00;;;;;;4916415;29;20123;-74
2023/01/30 01:31:16;;;;;;;82.07;45.50;;;1.90;1.00;;;;;;4914249;29;20036;-73
2023/01/30 01:33:44;;;;;;;82.35;44.00;;;1.90;1.00;;;;;;4908189;29;20090;-73
2023/01/30 01:36:13;;;;;;;88.20;46.25;;;2.00;1.00;;;;;;4932294;29;20050;-74
2023/01/30 01:38:43;;;;;;;94.22;51.25;;;2.10;1.00;;;;;;4915756;29;20055;-74
2023/01/30 01:41:11;;;;;;;95.22;52.70;;;2.10;1.00;;;;;;4915134;29;20146;-73
2023/01/30 01:43:55;;;;;;;95.28;53.45;;;2.10;1.00;;;;;;4933114;29;20050;-73
2023/01/30 01:46:25;;;;;;;87.72;46.35;;;2.20;1.00;;;;;;4921744;29;20131;-73
2023/01/30 01:48:58;;;;;;;79.57;44.08;;;2.20;1.00;;;;;;4938237;29;20142;-73
2023/01/30 01:51:30;;;;;;;81.88;45.38;;;2.10;1.00;;;;;;4936339;29;20408;-74
2023/01/30 01:54:03;;;;;;;82.25;45.75;;;2.10;1.00;;;;;;4935403;29;20571;-74
2023/01/30 01:56:32;;;;;;;90.43;49.30;;;2.00;1.00;;;;;;4935211;29;20044;-73
2023/01/30 01:59:05;;;;;;;105.82;58.60;;;2.00;1.00;;;;;;4923020;29;20044;-73
2023/01/30 02:01:33;;;;;;;104.55;57.97;;;1.90;1.00;;;;;;4930749;29;20134;-73
2023/01/30 02:04:04;;;;;;;109.20;59.70;;;1.90;1.00;;;;;;4931684;29;20074;-73
2023/01/30 02:06:33;;;;;;;107.95;57.03;;;1.80;1.00;;;;;;4932345;29;20500;-73
2023/01/30 02:09:05;;;;;;;103.80;57.65;;;1.80;40.10;;;;;;4914846;29;20053;-72
2023/01/30 02:11:41;;;;;;;101.72;56.10;;;1.80;81.10;;;;;;4932094;29;20492;-73
2023/01/30 02:14:11;;;;;;;90.95;51.30;;;1.70;99.90;;;;;;4932540;29;20043;-73
2023/01/30 02:16:38;;;;;;;90.55;52.08;;;1.70;99.90;;;;;;4932313;29;20122;-73
2023/01/30 02:19:14;;;;;;;95.18;56.53;;;1.60;99.90;;;;;;4932352;29;20043;-73
2023/01/30 02:22:24;;;;;;;88.18;52.90;;;1.70;99.90;;;;;;4932196;29;20044;-73
2023/01/30 02:25:06;;;;;;;87.15;53.75;;;1.70;99.90;;;;;;4905538;29;20139;-74
2023/01/30 02:28:02;;;;;;;92.32;55.83;;;1.70;99.90;;;;;;4914725;29;20143;-73
2023/01/30 02:31:08;;;;;;;92.72;54.80;;;1.80;99.90;;;;;;4903029;29;20051;-73
2023/01/30 02:33:44;;;;;;;88.18;55.15;;;1.80;99.90;;;;;;4891433;29;20069;-73
2023/01/30 02:36:20;;;;;;;91.63;54.95;;;1.80;99.90;;;;;;4874709;29;20136;-73
2023/01/30 02:38:55;;;;;;;91.47;55.08;;;1.70;99.90;;;;;;4915484;29;20131;-74
2023/01/30 02:41:33;;;;;;;90.57;55.53;;;1.70;99.90;;;;;;4913192;29;20044;-73
2023/01/30 02:44:05;;;;;;;89.15;53.97;;;1.70;99.90;;;;;;4912518;29;20503;-72
2023/01/30 02:46:40;;;;;;;84.38;51.55;;;1.70;99.90;;;;;;4914286;29;20067;-72
2023/01/30 02:49:13;;;;;;;87.45;54.80;;;1.70;99.90;;;;;;4931751;29;20063;-74
2023/01/30 02:51:42;;;;;;;87.28;52.22;;;1.60;99.90;;;;;;4912450;29;20560;-74
2023/01/30 02:54:12;;;;;;;88.80;51.72;;;1.60;99.90;;;;;;4932112;29;20040;-73
2023/01/30 02:56:48;;;;;;;91.07;52.17;;;1.60;99.90;;;;;;4933842;29;20341;-73
2023/01/30 02:59:19;;;;;;;90.55;52.28;;;1.50;99.90;;;;;;4915363;29;20048;-74
2023/01/30 03:02:16;;;;;;;83.78;51.05;;;1.60;99.90;;;;;;4905701;29;20048;-72
2023/01/30 03:05:07;;;;;;;87.93;51.47;;;1.50;99.90;;;;;;4913641;29;20064;-74
2023/01/30 03:07:44;;;;;;;90.22;52.25;;;1.60;99.90;;;;;;4930535;29;20055;-72
2023/01/30 03:10:21;;;;;;;89.85;51.50;;;1.50;99.90;;;;;;4924485;29;20520;-72
2023/01/30 03:13:02;;;;;;;80.72;48.63;;;1.60;99.90;;;;;;4917759;29;20048;-73
2023/01/30 03:15:34;;;;;;;82.55;49.15;;;1.50;99.90;;;;;;4917288;29;20512;-73
2023/01/30 03:18:03;;;;;;;75.13;46.13;;;1.50;99.90;;;;;;4917229;29;20048;-73
2023/01/30 03:20:36;;;;;;;75.72;44.53;;;1.50;99.90;;;;;;4924887;29;20051;-72
2023/01/30 03:23:04;;;;;;;80.38;43.13;;;1.50;99.90;;;;;;4933814;29;20556;-73
2023/01/30 03:25:32;;;;;;;71.55;42.20;;;1.50;99.90;;;;;;4917109;29;20504;-73
2023/01/30 03:28:02;;;;;;;77.03;43.33;;;1.50;99.90;;;;;;4932598;29;20057;-73
2023/01/30 03:30:29;;;;;;;73.70;41.85;;;1.60;99.90;;;;;;4932334;29;20492;-72
2023/01/30 03:33:06;;;;;;;72.53;40.17;;;1.50;99.90;;;;;;4917979;29;20071;-73
2023/01/30 03:35:37;;;;;;;72.63;42.22;;;1.50;99.90;;;;;;4931892;23;20060;-74
2023/01/30 03:38:05;;;;;;;71.10;40.63;;;1.50;99.90;;;;;;4936685;29;20269;-74
2023/01/30 03:40:33;;;;;;;71.53;40.33;;;1.50;99.90;;;;;;4935062;29;20094;-74
2023/01/30 03:43:00;;;;;;;71.50;39.08;;;1.50;99.90;;;;;;4935863;29;20047;-75
2023/01/30 03:45:29;;;;;;;82.50;43.53;;;1.50;99.90;;;;;;4935733;29;20059;-75
2023/01/30 03:47:56;;;;;;;79.28;44.47;;;1.50;99.90;;;;;;4960427;28;20051;-75
2023/01/30 03:50:24;;;;;;;79.00;44.00;;;1.50;99.90;;;;;;4960421;28;20142;-74
2023/01/30 03:52:52;;;;;;;75.43;41.40;;;1.50;99.90;;;;;;4962363;28;20039;-75
2023/01/30 03:55:22;;;;;;;74.20;42.45;;;1.50;99.90;;;;;;4939080;29;20134;-74
2023/01/30 03:57:49;;;;;;;77.25;43.28;;;1.50;99.90;;;;;;4939096;29;20495;-74
2023/01/30 04:00:19;;;;;;;77.72;42.47;;;1.60;99.90;;;;;;4937916;29;20049;-74
2023/01/30 04:02:50;;;;;;;77.20;42.92;;;1.60;99.90;;;;;;4955133;29;20130;-75
2023/01/30 04:05:19;;;;;;;128.77;59.95;;;1.60;99.90;;;;;;4935082;29;20063;-73
2023/01/30 04:07:57;;;;;;;266.63;104.38;;;1.60;99.90;;;;;;4935768;29;20154;-75
2023/01/30 04:10:25;;;;;;;206.20;88.05;;;1.60;99.90;;;;;;4934331;29;20052;-75
2023/01/30 04:12:53;;;;;;;141.57;67.18;;;1.60;99.90;;;;;;4935791;29;20057;-76
2023/01/30 04:15:22;;;;;;;137.90;66.05;;;1.60;99.90;;;;;;4936180;29;20055;-75
2023/01/30 04:18:03;;;;;;;118.70;57.58;;;1.60;99.90;;;;;;4940904;29;20550;-75
2023/01/30 04:20:50;;;;;;;104.28;54.53;;;1.50;99.90;;;;;;4966399;29;20085;-72
2023/01/30 04:23:25;;;;;;;96.65;52.50;;;1.50;99.90;;;;;;4951964;29;20846;-77
2023/01/30 04:25:53;;;;;;;101.68;57.45;;;1.50;99.90;;;;;;4982573;28;20046;-74
2023/01/30 04:28:23;;;;;;;82.57;50.33;;;1.50;99.90;;;;;;4951362;29;20035;-74
2023/01/30 04:30:53;;;;;;;81.13;49.30;;;1.40;99.90;;;;;;4938040;29;20047;-73
2023/01/30 04:33:50;;;;;;;91.28;52.30;;;1.50;99.90;;;;;;4948777;29;20055;-73
2023/01/30 04:36:17;;;;;;;83.43;52.58;;;1.40;99.90;;;;;;4953269;28;20054;-74
2023/01/30 04:38:47;;;;;;;78.40;49.65;;;1.40;99.90;;;;;;4960634;28;20047;-73
2023/01/30 04:41:18;;;;;;;82.57;50.20;;;1.40;99.90;;;;;;4956953;28;20043;-74
2023/01/30 04:43:46;;;;;;;89.40;54.28;;;1.30;99.90;;;;;;4934078;29;20043;-73
2023/01/30 04:46:14;;;;;;;81.68;49.42;;;1.30;1.00;;;;;;4959030;29;20043;-75
2023/01/30 04:48:42;;;;;;;85.05;52.05;;;1.30;1.00;;;;;;4942675;29;20062;-74
2023/01/30 04:51:10;;;;;;;83.47;49.47;;;1.30;1.00;;;;;;4957511;28;20047;-74
2023/01/30 04:53:38;;;;;;;75.60;45.17;;;1.40;99.90;;;;;;4961468;28;20056;-75
2023/01/30 04:56:08;;;;;;;70.85;45.22;;;1.30;99.90;;;;;;4959814;28;20047;-74
2023/01/30 04:58:36;;;;;;;77.82;47.53;;;1.30;1.00;;;;;;4935510;29;20043;-74
2023/01/30 05:01:14;;;;;;;76.13;46.72;;;1.30;99.90;;;;;;4933419;29;20039;-75
2023/01/30 05:03:42;;;;;;;73.43;43.65;;;1.30;1.00;;;;;;4957840;28;20130;-75
2023/01/30 05:06:09;;;;;;;73.82;44.83;;;1.40;1.00;;;;;;4952369;29;20051;-74
2023/01/30 05:08:37;;;;;;;78.05;48.20;;;1.40;1.00;;;;;;4951759;29;20035;-74
2023/01/30 05:11:05;;;;;;;65.47;41.92;;;1.40;1.00;;;;;;4951961;29;20094;-73
2023/01/30 05:13:34;;;;;;;62.00;40.28;;;1.30;1.00;;;;;;4950935;29;20050;-77
2023/01/30 05:16:01;;;;;;;68.05;41.22;;;1.30;1.00;;;;;;4950774;29;20418;-74
2023/01/30 05:18:29;;;;;;;70.03;43.05;;;1.40;1.00;;;;;;4951040;29;20492;-74
2023/01/30 05:21:04;;;;;;;66.15;41.28;;;1.30;1.00;;;;;;4952070;29;20131;-75
2023/01/30 05:23:31;;;;;;;63.20;38.53;;;1.30;1.00;;;;;;4950199;29;20090;-76
2023/01/30 05:25:59;;;;;;;57.75;36.05;;;1.30;1.00;;;;;;4935623;29;20388;-74
2023/01/30 05:28:27;;;;;;;62.47;38.67;;;1.30;1.00;;;;;;4954081;29;20534;-75
2023/01/30 05:31:01;;;;;;;63.47;37.08;;;1.20;1.00;;;;;;4958574;28;20065;-73
2023/01/30 05:33:29;;;;;;;66.05;40.33;;;1.20;1.00;;;;;;4952898;29;20050;-77
2023/01/30 05:35:56;;;;;;;62.33;38.25;;;1.20;1.00;;;;;;4954442;28;20065;-75
2023/01/30 05:38:25;;;;;;;64.80;38.35;;;1.20;1.00;;;;;;4968529;29;20069;-76
2023/01/30 05:41:00;;;;;;;94.63;51.22;;;1.30;1.00;;;;;;4968105;29;20055;-75
2023/01/30 05:43:27;;;;;;;95.45;50.90;;;1.30;1.00;;;;;;4956690;29;20041;-75
2023/01/30 05:45:58;;;;;;;83.43;46.20;;;1.20;1.00;;;;;;4951407;29;20555;-73
2023/01/30 05:48:27;;;;;;;86.43;52.38;;;1.20;1.00;;;;;;4933950;29;20047;-75
2023/01/30 05:50:56;;;;;;;55.03;32.67;;;1.10;1.00;;;;;;4956218;29;20044;-74
2023/01/30 05:53:26;;;;;;;53.92;33.17;;;1.20;1.00;;;;;;4952318;29;20054;-75
2023/01/30 05:55:55;;;;;;;58.17;33.53;;;1.20;1.00;;;;;;4951895;29;20047;-74
2023/01/30 05:58:23;;;;;;;56.42;36.25;;;1.20;1.00;;;;;;4934229;29;20048;-74
2023/01/30 06:00:51;;;;;;;66.38;41.15;;;1.30;1.00;;;;;;4953349;29;20109;-74
2023/01/30 06:03:20;;;;;;;65.30;41.38;;;1.30;1.00;;;;;;4968158;29;20039;-73
2023/01/30 06:05:47;;;;;;;63.15;37.10;;;1.20;1.00;;;;;;4943412;29;20227;-75
2023/01/30 06:08:15;;;;;;;63.85;36.78;;;1.30;1.00;;;;;;4952117;29;20514;-74
2023/01/30 06:10:43;;;;;;;54.30;32.67;;;1.20;1.00;;;;;;4951526;29;20118;-75
2023/01/30 06:13:10;;;;;;;51.15;31.73;;;1.20;1.00;;;;;;4952829;29;20049;-76
2023/01/30 06:15:38;;;;;;;52.35;31.70;;;1.20;1.00;;;;;;4949375;29;20126;-75
2023/01/30 06:18:05;;;;;;;56.90;33.50;;;1.20;99.90;;;;;;4949558;29;20031;-75
2023/01/30 06:20:34;;;;;;;54.35;32.53;;;1.20;99.90;;;;;;4950475;29;20688;-76
2023/01/30 06:23:02;;;;;;;56.60;32.85;;;1.30;1.00;;;;;;4950084;29;20069;-75
2023/01/30 06:25:29;;;;;;;61.13;35.03;;;1.30;99.90;;;;;;4954323;29;20603;-74
2023/01/30 06:27:57;;;;;;;68.82;36.80;;;1.30;99.90;;;;;;4962445;29;20075;-76
2023/01/30 06:30:24;;;;;;;69.53;41.00;;;1.30;99.90;;;;;;4951559;29;20047;-75
2023/01/30 06:32:52;;;;;;;75.28;40.85;;;1.30;99.90;;;;;;4951909;29;20049;-74
2023/01/30 06:35:19;;;;;;;71.57;40.10;;;1.30;1.00;;;;;;4951556;29;20438;-74
2023/01/30 06:37:48;;;;;;;71.25;40.90;;;1.30;1.00;;;;;;4932895;29;20625;-75
2023/01/30 06:40:16;;;;;;;82.03;45.08;;;1.30;1.00;;;;;;4950938;29;20077;-75
2023/01/30 06:42:47;;;;;;;112.97;58.75;;;1.30;99.90;;;;;;4950634;29;20482;-76
2023/01/30 06:45:15;;;;;;;78.90;44.00;;;1.30;99.90;;;;;;4934417;29;20050;-75
2023/01/30 06:47:46;;;;;;;83.07;44.92;;;1.30;1.00;;;;;;4951141;29;20044;-74
2023/01/30 06:50:15;;;;;;;86.60;46.85;;;1.40;1.00;;;;;;4952451;29;20040;-76
2023/01/30 06:52:43;;;;;;;78.18;42.92;;;1.40;1.00;;;;;;4954367;29;20137;-74
2023/01/30 06:55:13;;;;;;;75.45;43.40;;;1.50;1.00;;;;;;4935067;29;20174;-75
2023/01/30 06:57:41;;;;;;;73.72;41.38;;;1.50;1.00;;;;;;4936730;29;20512;-77
2023/01/30 07:00:12;;;;;;;88.97;49.65;;;1.60;99.90;;;;;;4952686;29;20039;-75
2023/01/30 07:02:40;;;;;;;98.05;54.13;;;1.60;99.90;;;;;;4952491;29;20043;-75
2023/01/30 07:05:09;;;;;;;94.53;53.70;;;1.60;99.90;;;;;;4936753;29;20047;-77
2023/01/30 07:07:37;;;;;;;99.35;55.83;;;1.70;99.90;;;;;;4954584;29;20048;-77
2023/01/30 07:10:06;;;;;;;87.55;50.88;;;1.60;99.90;;;;;;4952450;29;20118;-79
2023/01/30 07:12:36;;;;;;;89.22;52.05;;;1.70;99.90;;;;;;4954169;29;20050;-77
2023/01/30 07:15:04;;;;;;;91.63;50.80;;;1.80;99.90;;;;;;4953280;29;20051;-75
2023/01/30 07:17:31;;;;;;;94.47;51.85;;;1.80;99.90;;;;;;4951120;29;20066;-78
2023/01/30 07:19:59;;;;;;;93.97;51.97;;;1.90;99.90;;;;;;4951409;29;20063;-75
2023/01/30 07:22:26;;;;;;;119.07;63.72;;;1.90;99.90;;;;;;4954624;29;20078;-76
2023/01/30 07:24:54;;;;;;;116.22;63.08;;;2.00;99.90;;;;;;4953875;29;20122;-75
2023/01/30 07:27:21;;;;;;;115.38;65.47;;;2.00;99.90;;;;;;4937464;29;20414;-77
2023/01/30 07:29:50;;;;;;;115.32;62.60;;;2.00;99.90;;;;;;4957220;29;20117;-73
2023/01/30 07:32:19;;;;;;;113.80;60.47;;;2.10;99.90;;;;;;4952464;29;20066;-75
2023/01/30 07:34:47;;;;;;;107.65;58.22;;;2.20;95.10;;;;;;4946808;29;20498;-76
2023/01/30 07:37:15;;;;;;;115.55;64.13;;;2.30;60.00;;;;;;4951679;28;20474;-72
2023/01/30 07:39:42;;;;;;;130.93;65.43;;;2.40;64.00;;;;;;4957689;29;20335;-74
2023/01/30 07:42:10;;;;;;;125.75;63.05;;;2.50;13.10;;;;;;4960024;29;20040;-74
2023/01/30 07:44:39;;;;;;;129.38;65.63;;;2.60;1.00;;;;;;4970991;29;20039;-74
2023/01/30 07:47:08;;;;;;;131.23;65.97;;;2.60;1.00;;;;;;4961792;29;20109;-76
2023/01/30 07:49:42;;;;;;;130.05;68.15;;;2.70;1.00;;;;;;4955526;29;20155;-75
2023/01/30 07:52:10;;;;;;;149.82;74.97;;;2.80;1.00;;;;;;4954715;29;20043;-74
2023/01/30 07:54:40;;;;;;;124.90;65.63;;;2.90;1.00;;;;;;4956207;28;20075;-75
2023/01/30 07:57:10;;;;;;;132.90;66.95;;;2.90;1.00;;;;;;4956588;29;20129;-77
2023/01/30 07:59:48;;;;;;;131.52;69.07;;;2.80;1.00;;;;;;4953466;29;20508;-76
2023/01/30 08:02:22;;;;;;;125.13;62.58;;;2.90;1.00;;;;;;4953000;29;20064;-77
2023/01/30 08:04:52;;;;;;;119.25;57.20;;;2.90;1.00;;;;;;4953999;29;20053;-77
2023/01/30 08:07:20;;;;;;;116.57;59.20;;;3.10;1.00;;;;;;4966515;29;20078;-73
2023/01/30 08:09:47;;;;;;;121.95;62.30;;;3.20;1.00;;;;;;4950606;29;20039;-76
2023/01/30 08:12:14;;;;;;;104.25;55.05;;;3.30;1.00;;;;;;4947914;29;20488;-77
2023/01/30 08:14:42;;;;;;;112.82;59.85;;;3.40;1.00;;;;;;4956251;28;20047;-78
2023/01/30 08:17:09;;;;;;;97.85;49.97;;;3.40;1.00;;;;;;4952744;29;20067;-77
2023/01/30 08:19:42;;;;;;;121.82;64.18;;;3.30;1.00;;;;;;4952734;29;20046;-77
2023/01/30 08:22:09;;;;;;;120.65;60.05;;;3.30;1.00;;;;;;4953158;29;20613;-77
2023/01/30 08:24:36;;;;;;;122.65;62.72;;;3.30;1.00;;;;;;4934522;29;20043;-77
2023/01/30 08:27:04;;;;;;;104.38;54.92;;;3.40;1.00;;;;;;4949149;29;20070;-77
2023/01/30 08:29:31;;;;;;;101.80;52.42;;;3.40;1.00;;;;;;4948713;29;20126;-77
2023/01/30 08:31:59;;;;;;;97.10;51.58;;;3.50;1.00;;;;;;4953131;29;20510;-75
2023/01/30 08:34:27;;;;;;;88.65;47.15;;;3.60;1.00;;;;;;4947410;29;20043;-76
2023/01/30 08:36:56;;;;;;;86.90;46.85;;;3.60;1.00;;;;;;4957515;29;20504;-76
2023/01/30 08:39:23;;;;;;;81.50;46.75;;;3.20;1.00;;;;;;4966115;29;20047;-78
2023/01/30 08:41:51;;;;;;;85.55;45.50;;;3.40;1.00;;;;;;4951218;29;20141;-74
2023/01/30 08:44:18;;;;;;;63.65;33.65;;;3.60;1.00;;;;;;4957033;29;20047;-77
2023/01/30 08:46:46;;;;;;;51.72;28.48;;;3.70;1.00;;;;;;4950254;29;20130;-75
2023/01/30 08:49:14;;;;;;;46.97;23.08;;;3.80;1.00;;;;;;4953883;29;20070;-76
2023/01/30 08:51:41;;;;;;;48.35;22.80;;;3.90;1.00;;;;;;4934096;29;20392;-74
2023/01/30 08:54:10;;;;;;;46.78;25.33;;;3.90;1.00;;;;;;4954467;29;20050;-75
2023/01/30 08:56:37;;;;;;;48.15;26.23;;;4.00;1.00;;;;;;4979484;28;20050;-73
2023/01/30 08:59:06;;;;;;;49.53;25.33;;;4.20;1.00;;;;;;4965851;29;20039;-74
2023/01/30 09:01:34;;;;;;;46.25;25.15;;;4.50;1.00;;;;;;4960148;28;20047;-78
2023/01/30 09:04:01;;;;;;;47.05;24.83;;;4.70;1.00;;;;;;4935385;29;20051;-75
2023/01/30 09:06:32;;;;;;;50.03;26.10;;;4.80;1.00;;;;;;4950261;29;20043;-75
2023/01/30 09:08:59;;;;;;;44.35;24.15;;;4.70;1.00;;;;;;4952206;29;20502;-77
2023/01/30 09:11:28;;;;;;;50.13;25.33;;;4.80;1.00;;;;;;4936096;29;20053;-77
2023/01/30 09:13:56;;;;;;;56.33;27.55;;;4.70;1.00;;;;;;4951007;29;20130;-75
2023/01/30 09:16:24;;;;;;;58.85;30.02;;;4.50;1.00;;;;;;4951837;29;20062;-75
2023/01/30 09:18:51;;;;;;;54.67;28.10;;;4.40;1.00;;;;;;4935659;29;20062;-77
2023/01/30 09:21:20;;;;;;;58.28;31.58;;;4.60;1.00;;;;;;4950568;29;20086;-78
2023/01/30 09:23:48;;;;;;;59.35;31.35;;;4.50;1.00;;;;;;4948008;29;20039;-76
2023/01/30 09:26:16;;;;;;;59.25;33.13;;;4.70;1.00;;;;;;4952062;29;20098;-77
2023/01/30 09:28:47;;;;;;;65.60;34.22;;;4.90;1.00;;;;;;4950675;29;20045;-76
2023/01/30 09:31:15;;;;;;;54.97;29.88;;;5.10;1.00;;;;;;4935680;29;20061;-74
2023/01/30 09:33:42;;;;;;;56.92;29.67;;;5.30;1.00;;;;;;4936217;29;20174;-75
2023/01/30 09:36:10;;;;;;;55.17;30.73;;;5.30;1.00;;;;;;4975959;23;20133;-74
2023/01/30 09:38:38;;;;;;;57.83;30.67;;;5.20;1.00;;;;;;4952760;28;20066;-74
2023/01/30 09:41:27;;;;;;;62.35;33.17;;;5.10;1.00;;;;;;4951694;28;20495;-75
2023/01/30 09:44:29;;;;;;;55.35;31.67;;;4.90;1.00;;;;;;4953352;28;20492;-73
2023/01/30 09:47:04;;;;;;;63.70;32.33;;;4.80;1.00;;;;;;4949765;28;20047;-74
2023/01/30 09:49:42;;;;;;;57.73;31.40;;;4.30;1.00;;;;;;4950309;28;20043;-74
2023/01/30 09:52:23;;;;;;;54.40;30.50;;;4.10;1.00;;;;;;4950555;28;20351;-74
2023/01/30 09:54:55;;;;;;;59.40;34.65;;;4.10;1.00;;;;;;4952236;28;20058;-75
2023/01/30 09:57:24;;;;;;;62.58;34.90;;;4.00;1.00;;;;;;4948491;29;20122;-75
2023/01/30 10:00:01;;;;;;;60.63;34.53;;;4.20;1.00;;;;;;4951416;28;20547;-75
2023/01/30 10:02:51;;;;;;;66.15;36.13;;;4.30;1.00;;;;;;4952347;28;20052;-74
2023/01/30 10:05:19;;;;;;;58.13;33.45;;;4.40;1.00;;;;;;4953311;28;20107;-73
2023/01/30 10:08:04;;;;;;;59.28;32.70;;;4.40;1.00;;;;;;4951598;28;20083;-75
2023/01/30 10:10:48;;;;;;;53.00;30.73;;;4.50;1.00;;;;;;4950034;28;20070;-74
2023/01/30 10:13:39;;;;;;;52.60;29.88;;;4.60;1.00;;;;;;4949679;28;20058;-73
2023/01/30 10:16:15;;;;;;;50.25;30.25;;;4.70;1.00;;;;;;4944517;28;20055;-74
2023/01/30 10:19:08;;;;;;;53.47;31.13;;;4.50;1.00;;;;;;4948447;28;20411;-74
2023/01/30 10:21:44;;;;;;;51.50;31.30;;;4.10;1.00;;;;;;4954448;29;20043;-74
2023/01/30 10:24:24;;;;;;;60.20;35.42;;;4.00;1.00;;;;;;4957333;29;20095;-73
2023/01/30 10:26:53;;;;;;;56.03;33.38;;;4.00;1.00;;;;;;4955183;28;20043;-73
2023/01/30 10:29:26;;;;;;;54.60;31.17;;;4.00;1.00;;;;;;4976330;28;20052;-75
2023/01/30 10:32:01;;;;;;;60.60;36.45;;;4.00;1.00;;;;;;4948329;29;20040;-75
2023/01/30 10:34:32;;;;;;;59.25;34.65;;;3.80;1.00;;;;;;4946640;29;20059;-74
2023/01/30 10:37:07;;;;;;;62.75;36.40;;;3.80;1.00;;;;;;4960191;28;20055;-75
2023/01/30 10:39:39;;;;;;;59.80;35.50;;;3.80;1.00;;;;;;4966594;28;20050;-75
2023/01/30 10:42:11;;;;;;;62.78;35.92;;;4.00;1.00;;;;;;4968070;28;20058;-75
2023/01/30 10:44:41;;;;;;;60.15;33.83;;;4.20;1.00;;;;;;4971090;28;20132;-74
2023/01/30 10:47:39;;;;;;;66.47;34.50;;;4.30;1.00;;;;;;4966878;28;20043;-74
2023/01/30 10:50:16;;;;;;;63.83;36.30;;;4.40;1.00;;;;;;4965169;28;20038;-76
2023/01/30 10:52:52;;;;;;;64.30;34.90;;;4.50;1.00;;;;;;4965527;28;20047;-76
2023/01/30 10:55:30;;;;;;;63.67;32.55;;;4.50;1.00;;;;;;4964568;28;20057;-76
2023/01/30 10:58:09;;;;;;;61.05;33.42;;;4.60;1.00;;;;;;4963853;28;20680;-76
2023/01/30 11:00:42;;;;;;;68.38;36.00;;;4.50;1.00;;;;;;4963600;28;20511;-75
2023/01/30 11:03:24;;;;;;;61.13;32.78;;;4.50;1.00;;;;;;4962853;28;20715;-76
2023/01/30 11:05:54;;;;;;;63.00;32.63;;;4.40;1.00;;;;;;4963542;28;20050;-75
2023/01/30 11:08:27;;;;;;;59.85;33.25;;;4.40;1.00;;;;;;4964824;28;20053;-75
2023/01/30 11:10:58;;;;;;;64.95;35.60;;;4.50;1.00;;;;;;4964085;28;20067;-77
2023/01/30 11:13:30;;;;;;;66.47;35.05;;;4.50;1.00;;;;;;4962026;28;20051;-76
2023/01/30 11:16:00;;;;;;;66.05;36.13;;;4.70;1.00;;;;;;4961515;28;20071;-75
2023/01/30 11:18:29;;;;;;;66.35;37.05;;;4.70;1.00;;;;;;4963337;28;20067;-74
2023/01/30 11:21:03;;;;;;;64.85;34.17;;;4.80;1.00;;;;;;4958157;28;20043;-75
2023/01/30 11:23:39;;;;;;;66.80;34.90;;;4.90;1.00;;;;;;4963337;28;20043;-73
2023/01/30 11:26:07;;;;;;;70.55;35.10;;;4.90;1.00;;;;;;4962909;28;20093;-73
2023/01/30 11:28:41;;;;;;;61.67;34.33;;;5.00;1.00;;;;;;4968538;28;20047;-75
2023/01/30 11:31:18;;;;;;;64.00;36.90;;;5.10;1.00;;;;;;4967640;28;20434;-74
2023/01/30 11:34:00;;;;;;;73.20;37.45;;;5.30;1.00;;;;;;4969293;28;20247;-74
2023/01/30 11:36:29;;;;;;;68.25;37.45;;;5.10;1.00;;;;;;4968867;28;20047;-77
2023/01/30 11:39:01;;;;;;;74.05;38.40;;;5.20;1.00;;;;;;4966374;28;20095;-75
2023/01/30 11:41:29;;;;;;;76.65;42.22;;;5.30;1.00;;;;;;4966036;28;20116;-77
2023/01/30 11:44:01;;;;;;;77.85;42.15;;;5.40;1.00;;;;;;4967794;28;20039;-74
2023/01/30 11:46:34;;;;;;;70.40;39.22;;;5.50;1.00;;;;;;4964708;28;20039;-75
2023/01/30 11:49:05;;;;;;;70.60;38.45;;;5.60;1.00;;;;;;4966048;28;20051;-75
2023/01/30 11:51:35;;;;;;;70.75;39.58;;;5.60;1.00;;;;;;4961033;28;20066;-74
2023/01/30 11:54:05;;;;;;;77.15;42.03;;;5.40;1.00;;;;;;4963851;28;20035;-75
2023/01/30 11:56:35;;;;;;;78.82;43.53;;;5.50;1.00;;;;;;4963088;28;20110;-77
2023/01/30 11:59:06;;;;;;;72.28;41.20;;;5.70;1.00;;;;;;4962203;28;20066;-75
2023/01/30 12:01:35;;;;;;;73.38;41.47;;;5.50;1.00;;;;;;4960747;28;20411;-76
2023/01/30 12:04:11;;;;;;;71.90;38.30;;;5.50;1.00;;;;;;4958785;28;20035;-75
2023/01/30 12:06:40;;;;;;;74.90;41.05;;;5.30;1.00;;;;;;4963698;28;20521;-74
2023/01/30 12:09:31;;;;;;;75.55;41.67;;;5.30;1.00;;;;;;4961972;28;20066;-76
2023/01/30 12:11:59;;;;;;;77.85;41.75;;;5.40;1.00;;;;;;4961739;28;20082;-74
2023/01/30 12:14:37;;;;;;;76.20;42.00;;;5.40;1.00;;;;;;4964362;28;20135;-75
2023/01/30 12:17:14;;;;;;;80.57;45.70;;;5.60;1.00;;;;;;4971466;28;20055;-76
2023/01/30 12:20:00;;;;;;;67.65;38.08;;;5.70;1.00;;;;;;4966947;28;20094;-75
2023/01/30 12:22:35;;;;;;;69.20;38.30;;;5.80;1.00;;;;;;4962271;28;20047;-75
2023/01/30 12:25:13;;;;;;;67.15;37.38;;;5.90;1.00;;;;;;4961681;28;20195;-76
2023/01/30 12:27:55;;;;;;;65.68;37.72;;;6.00;1.00;;;;;;4974325;28;20043;-76
2023/01/30 12:30:30;;;;;;;75.57;41.42;;;6.00;1.00;;;;;;4974416;28;20043;-75
2023/01/30 12:33:01;;;;;;;74.70;41.33;;;6.10;1.00;;;;;;4963004;28;20125;-75
2023/01/30 12:35:41;;;;;;;73.50;41.33;;;6.10;1.00;;;;;;4961539;28;20070;-76
2023/01/30 12:38:21;;;;;;;67.68;38.30;;;6.20;1.00;;;;;;4963421;28;20487;-75
2023/01/30 12:40:58;;;;;;;63.22;36.42;;;6.40;1.00;;;;;;4963422;28;20047;-75
2023/01/30 12:43:47;;;;;;;70.65;39.38;;;6.50;1.00;;;;;;4961975;28;20043;-76
2023/01/30 12:46:38;;;;;;;62.20;35.72;;;6.70;1.00;;;;;;4961159;28;20129;-76
2023/01/30 12:49:27;;;;;;;61.22;36.30;;;6.50;1.00;;;;;;4961651;28;20385;-74
2023/01/30 12:52:13;;;;;;;67.38;35.80;;;6.60;1.00;;;;;;4961420;28;20380;-76
2023/01/30 12:54:51;;;;;;;64.63;36.15;;;6.70;1.00;;;;;;4975303;28;20179;-75
2023/01/30 12:57:29;;;;;;;64.35;37.67;;;6.80;1.00;;;;;;4961831;28;20051;-75
2023/01/30 13:00:11;;;;;;;65.88;37.65;;;6.90;1.00;;;;;;4959613;28;20050;-75
2023/01/30 13:02:51;;;;;;;58.75;32.75;;;6.80;1.00;;;;;;4961729;28;20485;-75
2023/01/30 13:05:25;;;;;;;63.15;35.42;;;6.70;1.00;;;;;;4960448;28;20047;-75
2023/01/30 13:08:06;;;;;;;73.63;36.58;;;6.60;1.00;;;;;;4958866;28;20050;-74
2023/01/30 13:10:38;;;;;;;64.00;35.33;;;6.50;1.00;;;;;;4960095;28;20047;-75
2023/01/30 13:13:16;;;;;;;64.93;36.95;;;6.20;1.00;;;;;;4959347;28;20072;-75